createdAt,value
2019-04-25T00:00:48.085Z,36.75
2019-04-25T00:03:15.757Z,37.21
2019-04-25T00:05:43.323Z,38.35
2019-04-25T00:08:11.459Z,37.67
2019-04-25T00:10:38.092Z,37.84
2019-04-25T00:13:05.165Z,37.19
2019-04-25T00:15:31.854Z,36.89
2019-04-25T00:17:58.492Z,37.33
2019-04-25T00:20:25.078Z,37.32
2019-04-25T00:23:11.749Z,37.59
2019-04-25T00:25:47.197Z,37.55
2019-04-25T00:28:13.718Z,37.28
2019-04-25T00:30:40.908Z,37.65
2019-04-25T00:33:08.029Z,37.30
2019-04-25T00:35:34.234Z,37.22
2019-04-25T00:38:00.411Z,37.19
2019-04-25T00:40:26.563Z,37.38
2019-04-25T00:42:53.838Z,37.31
2019-04-25T00:45:22.025Z,36.81
2019-04-25T00:47:48.297Z,36.58
2019-04-25T00:50:14.506Z,37.56
2019-04-25T00:52:42.429Z,37.75
2019-04-25T00:55:08.987Z,37.66
2019-04-25T00:57:36.382Z,38.30
2019-04-25T01:00:25.804Z,38.39
2019-04-25T01:02:54.616Z,39.48
2019-04-25T01:05:21.654Z,39.82
2019-04-25T01:07:48.265Z,40.17
2019-04-25T01:10:15.154Z,39.49
2019-04-25T01:12:41.866Z,39.31
2019-04-25T01:15:11.595Z,38.25
2019-04-25T01:17:38.136Z,38.32
2019-04-25T01:20:06.217Z,39.29
2019-04-25T01:22:32.376Z,38.67
2019-04-25T01:24:58.582Z,38.22
2019-04-25T01:27:24.850Z,37.31
2019-04-25T01:29:51.934Z,36.78
2019-04-25T01:32:20.200Z,36.51
2019-04-25T01:34:58.931Z,35.88
2019-04-25T01:37:27.106Z,35.81
2019-04-25T01:40:04.244Z,36.15
2019-04-25T01:42:33.780Z,35.85
2019-04-25T01:45:00.148Z,35.84
2019-04-25T01:47:26.703Z,35.82
2019-04-25T01:49:54.593Z,35.88
2019-04-25T01:52:20.987Z,36.29
2019-04-25T01:54:47.153Z,35.91
2019-04-25T01:57:14.268Z,35.33
2019-04-25T01:59:40.579Z,34.94
2019-04-25T02:02:09.026Z,34.91
2019-04-25T02:04:35.260Z,34.84
2019-04-25T02:07:01.454Z,34.25
2019-04-25T02:09:27.808Z,34.24
2019-04-25T02:11:56.637Z,34.00
2019-04-25T02:14:23.690Z,33.72
2019-04-25T02:16:50.161Z,34.09
2019-04-25T02:19:16.348Z,34.49
2019-04-25T02:21:43.441Z,34.38
2019-04-25T02:24:09.867Z,34.60
2019-04-25T02:26:36.065Z,34.47
2019-04-25T02:29:04.571Z,33.79
2019-04-25T02:31:30.691Z,33.97
2019-04-25T02:34:00.173Z,33.77
2019-04-25T02:36:25.070Z,33.64
2019-04-25T02:38:51.210Z,33.39
2019-04-25T02:41:17.666Z,33.13
2019-04-25T02:43:44.988Z,33.14
2019-04-25T02:46:30.114Z,33.44
2019-04-25T02:49:03.214Z,33.65
2019-04-25T02:51:35.027Z,34.10
2019-04-25T02:54:02.711Z,35.10
2019-04-25T02:56:34.530Z,34.79
2019-04-25T02:58:58.506Z,35.13
2019-04-25T03:01:26.203Z,35.68
2019-04-25T03:03:54.566Z,35.95
2019-04-25T03:06:20.800Z,35.92
2019-04-25T03:08:46.954Z,35.81
2019-04-25T03:11:14.999Z,36.28
2019-04-25T03:13:41.337Z,36.76
2019-04-25T03:16:10.777Z,36.94
2019-04-25T03:18:40.089Z,37.03
2019-04-25T03:21:14.263Z,36.99
2019-04-25T03:23:42.197Z,36.90
2019-04-25T03:26:07.503Z,36.62
2019-04-25T03:28:34.414Z,36.63
2019-04-25T03:31:02.115Z,36.44
2019-04-25T03:33:28.785Z,36.32
2019-04-25T03:35:54.962Z,35.96
2019-04-25T03:38:21.234Z,35.83
2019-04-25T03:40:47.383Z,35.64
2019-04-25T03:43:15.021Z,35.66
2019-04-25T03:45:41.268Z,35.36
2019-04-25T03:48:07.584Z,34.98
2019-04-25T03:50:34.081Z,34.45
2019-04-25T03:53:00.588Z,34.68
2019-04-25T03:55:26.744Z,33.72
2019-04-25T03:57:53.926Z,33.22
2019-04-25T04:00:20.220Z,32.81
2019-04-25T04:02:46.397Z,32.66
2019-04-25T04:05:13.937Z,32.23
2019-04-25T04:07:40.750Z,32.34
2019-04-25T04:10:07.899Z,31.86
2019-04-25T04:12:35.548Z,30.89
2019-04-25T04:15:03.803Z,29.55
2019-04-25T04:17:34.679Z,28.69
2019-04-25T04:20:03.926Z,28.05
2019-04-25T04:22:41.748Z,26.91
2019-04-25T04:25:09.836Z,27.08
2019-04-25T04:27:36.012Z,26.28
2019-04-25T04:30:06.399Z,26.50
2019-04-25T04:32:34.029Z,27.04
2019-04-25T04:35:00.429Z,27.39
2019-04-25T04:37:26.614Z,26.76
2019-04-25T04:39:53.621Z,25.25
2019-04-25T04:42:19.981Z,25.36
2019-04-25T04:44:46.152Z,26.84
2019-04-25T04:47:14.073Z,27.92
2019-04-25T04:49:40.400Z,27.38
2019-04-25T04:52:06.654Z,26.37
2019-04-25T04:54:34.419Z,25.09
2019-04-25T04:57:00.853Z,25.03
2019-04-25T04:59:27.022Z,24.91
2019-04-25T05:01:57.913Z,27.75
2019-04-25T05:04:25.974Z,29.31
2019-04-25T05:07:13.494Z,26.69
2019-04-25T05:09:40.259Z,26.87
2019-04-25T05:12:06.439Z,25.89
2019-04-25T05:14:33.707Z,25.16
2019-04-25T05:17:00.231Z,23.27
2019-04-25T05:19:26.411Z,23.68
2019-04-25T05:21:53.702Z,24.24
2019-04-25T05:24:20.820Z,23.85
2019-04-25T05:26:47.059Z,24.46
2019-04-25T05:29:16.247Z,25.83
2019-04-25T05:31:43.910Z,26.55
2019-04-25T05:34:11.261Z,25.07
2019-04-25T05:36:37.495Z,24.98
2019-04-25T05:39:06.830Z,23.90
2019-04-25T05:41:42.011Z,24.06
2019-04-25T05:44:08.203Z,21.90
2019-04-25T05:46:34.338Z,20.53
2019-04-25T05:49:00.532Z,20.94
2019-04-25T05:51:26.734Z,20.92
2019-04-25T05:53:53.016Z,20.94
2019-04-25T05:56:20.094Z,21.59
2019-04-25T05:58:46.477Z,23.68
2019-04-25T06:01:13.399Z,23.46
2019-04-25T06:03:39.735Z,23.00
2019-04-25T06:06:06.007Z,23.62
2019-04-25T06:08:34.231Z,24.50
2019-04-25T06:11:03.833Z,24.64
2019-04-25T06:13:33.348Z,24.24
2019-04-25T06:16:03.513Z,23.63
2019-04-25T06:18:32.117Z,24.24
2019-04-25T06:20:59.797Z,22.65
2019-04-25T06:23:45.790Z,20.35
2019-04-25T06:26:22.989Z,19.86
2019-04-25T06:28:52.098Z,20.17
2019-04-25T06:31:10.416Z,21.28
2019-04-25T06:33:36.896Z,21.91
2019-04-25T06:36:04.124Z,22.27
2019-04-25T06:38:30.553Z,21.63
2019-04-25T06:40:56.713Z,21.17
2019-04-25T06:43:24.556Z,26.19
2019-04-25T06:46:09.481Z,26.35
2019-04-25T06:51:46.125Z,25.24
2019-04-25T06:54:13.479Z,24.61
2019-04-25T06:56:39.714Z,24.50
2019-04-25T06:59:05.919Z,24.24
2019-04-25T07:01:33.161Z,22.81
2019-04-25T07:04:00.175Z,24.83
2019-04-25T07:06:27.178Z,26.21
2019-04-25T07:08:53.457Z,24.06
2019-04-25T07:11:19.609Z,24.81
2019-04-25T07:13:45.803Z,25.67
2019-04-25T07:16:13.425Z,24.36
2019-04-25T07:18:39.940Z,24.88
2019-04-25T07:21:06.153Z,25.75
2019-04-25T07:23:33.406Z,26.50
2019-04-25T07:26:03.744Z,25.62
2019-04-25T07:28:40.533Z,27.39
2019-04-25T07:33:59.514Z,24.88
2019-04-25T07:36:25.819Z,25.58
2019-04-25T07:39:05.448Z,25.63
2019-04-25T07:41:20.124Z,24.76
2019-04-25T07:43:46.280Z,25.62
2019-04-25T07:46:13.501Z,26.19
2019-04-25T07:48:39.843Z,29.15
2019-04-25T07:51:06.021Z,26.91
2019-04-25T07:53:33.923Z,28.54
2019-04-25T07:56:00.286Z,27.32
2019-04-25T07:58:37.831Z,28.36
2019-04-25T08:00:56.516Z,27.78
2019-04-25T08:03:23.764Z,26.91
2019-04-25T08:05:50.262Z,25.73
2019-04-25T08:08:16.430Z,25.53
2019-04-25T08:10:58.307Z,26.62
2019-04-25T08:13:26.376Z,26.03
2019-04-25T08:15:54.452Z,28.09
2019-04-25T08:18:23.406Z,27.97
2019-04-25T08:20:49.711Z,29.41
2019-04-25T08:23:15.986Z,29.89
2019-04-25T08:25:43.273Z,28.50
2019-04-25T08:28:09.740Z,27.02
2019-04-25T08:30:36.700Z,26.11
2019-04-25T08:33:04.107Z,25.82
2019-04-25T08:35:33.854Z,27.49
2019-04-25T08:38:00.059Z,28.05
2019-04-25T08:40:28.572Z,28.77
2019-04-25T08:42:54.970Z,28.46
2019-04-25T08:45:21.330Z,26.76
2019-04-25T08:47:47.521Z,26.16
2019-04-25T08:50:27.023Z,27.63
2019-04-25T08:52:44.336Z,29.34
2019-04-25T08:55:29.683Z,29.35
2019-04-25T08:58:00.298Z,29.63
2019-04-25T09:00:44.684Z,28.30
2019-04-25T09:03:18.728Z,29.02
2019-04-25T09:05:47.024Z,28.45
2019-04-25T09:08:14.211Z,28.65
2019-04-25T09:10:41.291Z,26.40
2019-04-25T09:13:07.696Z,26.71
2019-04-25T09:15:36.536Z,25.31
2019-04-25T09:18:01.930Z,26.29
2019-04-25T09:20:28.120Z,25.82
2019-04-25T09:22:54.476Z,25.47
2019-04-25T09:25:23.808Z,24.91
2019-04-25T09:27:50.386Z,25.67
2019-04-25T09:30:18.531Z,23.80
2019-04-25T09:32:44.922Z,24.43
2019-04-25T09:35:13.573Z,24.61
2019-04-25T09:37:40.797Z,24.34
2019-04-25T09:40:13.824Z,23.95
2019-04-25T09:42:41.488Z,24.83
2019-04-25T09:45:17.459Z,24.02
2019-04-25T09:47:45.776Z,25.27
2019-04-25T09:50:33.873Z,24.21
2019-04-25T09:53:00.383Z,23.41
2019-04-25T09:55:31.195Z,24.84
2019-04-25T09:58:01.786Z,25.24
2019-04-25T10:00:30.005Z,27.70
2019-04-25T10:02:56.153Z,26.97
2019-04-25T10:05:23.897Z,27.11
2019-04-25T10:07:50.261Z,25.38
2019-04-25T10:10:16.533Z,25.12
2019-04-25T10:12:44.177Z,23.93
2019-04-25T10:15:44.728Z,24.50
2019-04-25T10:18:14.175Z,25.55
2019-04-25T10:20:41.168Z,24.71
2019-04-25T10:23:07.667Z,26.73
2019-04-25T10:25:33.816Z,24.27
2019-04-25T10:27:59.986Z,23.52
2019-04-25T10:30:26.268Z,22.94
2019-04-25T10:32:54.632Z,21.68
2019-04-25T10:35:20.602Z,20.27
2019-04-25T10:37:46.795Z,21.34
2019-04-25T10:40:14.470Z,23.99
2019-04-25T10:42:40.720Z,24.79
2019-04-25T10:45:20.246Z,24.26
2019-04-25T10:47:35.610Z,22.94
2019-04-25T10:50:03.903Z,23.36
2019-04-25T10:52:30.199Z,23.80
2019-04-25T10:54:56.351Z,22.24
2019-04-25T10:57:22.632Z,23.76
2019-04-25T11:00:00.969Z,24.68
2019-04-25T11:02:17.152Z,23.58
2019-04-25T11:04:48.225Z,23.24
2019-04-25T11:07:13.697Z,22.15
2019-04-25T11:09:40.642Z,23.25
2019-04-25T11:12:11.014Z,22.76
2019-04-25T11:14:37.219Z,23.20
2019-04-25T11:17:03.468Z,23.49
2019-04-25T11:19:29.647Z,23.04
2019-04-25T11:21:55.858Z,22.06
2019-04-25T11:24:23.553Z,21.94
2019-04-25T11:26:51.428Z,20.56
2019-04-25T11:29:18.088Z,20.99
2019-04-25T11:31:47.319Z,21.41
2019-04-25T11:34:14.875Z,22.69
2019-04-25T11:36:41.145Z,24.47
2019-04-25T11:39:30.250Z,21.06
2019-04-25T11:41:56.540Z,22.34
2019-04-25T11:44:24.471Z,22.45
2019-04-25T11:46:50.880Z,22.33
2019-04-25T11:49:17.096Z,22.27
2019-04-25T11:51:44.844Z,22.11
2019-04-25T11:54:11.331Z,21.05
2019-04-25T11:56:37.547Z,20.96
2019-04-25T11:59:04.556Z,19.89
2019-04-25T12:01:31.063Z,20.34
2019-04-25T12:03:57.283Z,20.52
2019-04-25T12:06:24.354Z,21.20
2019-04-25T12:08:51.482Z,22.02
2019-04-25T12:11:17.913Z,21.90
2019-04-25T12:13:45.979Z,21.33
2019-04-25T12:16:14.279Z,20.49
2019-04-25T12:18:40.879Z,19.42
2019-04-25T12:21:07.065Z,19.05
2019-04-25T12:23:33.978Z,18.91
2019-04-25T12:26:00.309Z,18.71
2019-04-25T12:28:26.587Z,18.49
2019-04-25T12:30:54.958Z,19.15
2019-04-25T12:33:21.662Z,19.01
2019-04-25T12:35:47.995Z,18.68
2019-04-25T12:38:14.474Z,19.80
2019-04-25T12:40:40.672Z,21.03
2019-04-25T12:43:06.867Z,20.06
2019-04-25T12:45:40.732Z,20.22
2019-04-25T12:48:08.850Z,18.57
2019-04-25T12:50:34.989Z,18.82
2019-04-25T12:53:01.161Z,18.53
2019-04-25T12:55:27.350Z,18.18
2019-04-25T12:57:55.551Z,17.21
2019-04-25T13:00:24.301Z,17.66
2019-04-25T13:02:50.529Z,17.66
2019-04-25T13:05:16.809Z,17.61
2019-04-25T13:07:42.965Z,17.99
2019-04-25T13:10:09.468Z,16.81
2019-04-25T13:12:36.591Z,16.77
2019-04-25T13:15:03.950Z,17.21
2019-04-25T13:17:30.163Z,17.15
2019-04-25T13:19:56.778Z,16.43
2019-04-25T13:22:23.039Z,16.36
2019-04-25T13:24:49.233Z,18.95
2019-04-25T13:27:23.528Z,18.24
2019-04-25T13:30:08.145Z,17.75
2019-04-25T13:32:45.280Z,17.08
2019-04-25T13:35:19.717Z,17.92
2019-04-25T13:37:45.881Z,18.06
2019-04-25T13:40:12.750Z,18.13
2019-04-25T13:42:38.974Z,17.47
2019-04-25T13:45:06.267Z,18.63
2019-04-25T13:47:32.416Z,19.26
2019-04-25T13:49:58.616Z,19.29
2019-04-25T13:52:25.065Z,18.82
2019-04-25T13:54:51.456Z,19.03
2019-04-25T13:57:17.678Z,17.75
2019-04-25T13:59:45.801Z,17.75
2019-04-25T14:02:14.069Z,18.49
2019-04-25T14:04:40.497Z,18.89
2019-04-25T14:07:07.103Z,18.89
2019-04-25T14:09:34.692Z,18.88
2019-04-25T14:12:01.066Z,18.88
2019-04-25T14:14:27.252Z,20.16
2019-04-25T14:17:06.656Z,20.90
2019-04-25T14:19:34.830Z,20.65
2019-04-25T14:22:04.320Z,19.35
2019-04-25T14:24:32.303Z,18.99
2019-04-25T14:26:59.162Z,19.97
2019-04-25T14:29:26.123Z,20.90
2019-04-25T14:31:53.319Z,21.25
2019-04-25T14:34:19.906Z,20.17
2019-04-25T14:36:46.062Z,19.54
2019-04-25T14:39:13.456Z,19.22
2019-04-25T14:41:39.622Z,19.50
2019-04-25T14:44:05.798Z,20.06
2019-04-25T14:46:32.279Z,20.05
2019-04-25T14:48:58.460Z,19.49
2019-04-25T14:51:24.640Z,19.85
2019-04-25T14:53:50.928Z,20.19
2019-04-25T14:56:19.007Z,20.07
2019-04-25T14:58:46.080Z,20.26
2019-04-25T15:01:14.177Z,19.68
2019-04-25T15:03:40.531Z,19.84
2019-04-25T15:06:07.149Z,19.73
2019-04-25T15:08:33.448Z,20.63
2019-04-25T15:10:59.603Z,20.00
2019-04-25T15:13:25.904Z,20.25
2019-04-25T15:15:52.124Z,21.27
2019-04-25T15:18:18.285Z,21.10
2019-04-25T15:20:44.466Z,21.64
2019-04-25T15:23:10.676Z,22.11
2019-04-25T15:25:37.229Z,22.25
2019-04-25T15:28:03.383Z,21.94
2019-04-25T15:30:31.554Z,21.49
2019-04-25T15:32:57.909Z,22.40
2019-04-25T15:35:26.006Z,23.24
2019-04-25T15:37:59.909Z,22.87
2019-04-25T15:40:28.898Z,22.62
2019-04-25T15:42:57.144Z,23.16
2019-04-25T15:45:43.161Z,22.72
2019-04-25T15:48:09.314Z,22.47
2019-04-25T15:50:35.490Z,21.87
2019-04-25T15:53:01.708Z,22.24
2019-04-25T15:55:28.915Z,23.34
2019-04-25T15:57:55.393Z,22.86
2019-04-25T16:00:23.470Z,23.03
2019-04-25T16:02:49.622Z,22.77
2019-04-25T16:05:15.799Z,22.84
2019-04-25T16:07:42.002Z,23.66
2019-04-25T16:10:08.655Z,23.23
2019-04-25T16:12:35.002Z,23.75
2019-04-25T16:15:01.234Z,23.45
2019-04-25T16:17:28.486Z,23.39
2019-04-25T16:19:54.922Z,23.56
2019-04-25T16:22:21.229Z,23.12
2019-04-25T16:24:47.592Z,23.47
2019-04-25T16:27:15.546Z,24.38
2019-04-25T16:29:41.748Z,24.49
2019-04-25T16:32:20.009Z,24.62
2019-04-25T16:34:37.976Z,24.54
2019-04-25T16:37:04.287Z,24.51
2019-04-25T16:39:33.061Z,24.34
2019-04-25T16:41:59.464Z,24.23
2019-04-25T16:44:25.667Z,24.20
2019-04-25T16:46:51.933Z,24.00
2019-04-25T16:49:18.095Z,24.29
2019-04-25T16:51:44.321Z,24.75
2019-04-25T16:54:10.477Z,24.89
2019-04-25T16:56:36.904Z,25.35
2019-04-25T16:59:03.138Z,25.41
2019-04-25T17:01:30.328Z,25.57
2019-04-25T17:03:56.670Z,26.02
2019-04-25T17:06:23.081Z,26.55
2019-04-25T17:08:49.247Z,26.91
2019-04-25T17:11:16.017Z,27.32
2019-04-25T17:13:44.113Z,26.96
2019-04-25T17:16:30.678Z,27.23
2019-04-25T17:18:59.331Z,26.97
2019-04-25T17:21:25.508Z,27.43
2019-04-25T17:23:51.679Z,27.66
2019-04-25T17:26:18.263Z,28.02
2019-04-25T17:28:46.347Z,28.29
2019-04-25T17:31:26.433Z,28.24
2019-04-25T17:33:57.474Z,28.36
2019-04-25T17:36:28.597Z,28.19
2019-04-25T17:38:59.427Z,28.52
2019-04-25T17:41:25.572Z,28.50
2019-04-25T17:43:51.777Z,29.24
2019-04-25T17:46:19.849Z,30.05
2019-04-25T17:48:46.216Z,30.91
2019-04-25T17:51:12.427Z,31.66
2019-04-25T17:53:39.079Z,31.55
2019-04-25T17:56:05.443Z,32.34
2019-04-25T17:58:32.259Z,31.42
2019-04-25T18:00:59.721Z,31.23
2019-04-25T18:03:26.472Z,30.97
2019-04-25T18:05:52.770Z,30.54
2019-04-25T18:08:18.929Z,31.58
2019-04-25T18:10:45.076Z,30.19
2019-04-25T18:13:11.389Z,29.90
2019-04-25T18:18:46.226Z,29.69
2019-04-25T18:21:13.545Z,29.69
2019-04-25T18:23:47.467Z,30.23
2019-04-25T18:26:24.553Z,29.14
2019-04-25T18:31:39.538Z,28.92
2019-04-25T18:34:07.724Z,29.53
2019-04-25T18:36:41.772Z,29.22
2019-04-25T18:39:25.159Z,28.56
2019-04-25T18:41:53.251Z,29.00
2019-04-25T18:44:19.428Z,29.32
2019-04-25T18:46:47.299Z,29.43
2019-04-25T18:49:13.506Z,29.37
2019-04-25T18:51:40.658Z,28.41
2019-04-25T18:54:11.554Z,29.45
2019-04-25T18:56:39.637Z,29.00
2019-04-25T18:59:24.014Z,30.34
2019-04-25T19:02:08.430Z,30.35
2019-04-25T19:04:45.106Z,29.40
2019-04-25T19:07:22.091Z,29.65
2019-04-25T19:09:40.722Z,29.95
2019-04-25T19:12:07.240Z,29.52
2019-04-25T19:14:33.447Z,28.47
2019-04-25T19:16:59.615Z,29.12
2019-04-25T19:19:25.762Z,29.66
2019-04-25T19:21:52.101Z,29.80
2019-04-25T19:24:18.285Z,29.46
2019-04-25T19:26:45.019Z,30.51
2019-04-25T19:29:12.353Z,30.76
2019-04-25T19:31:38.625Z,30.29
2019-04-25T19:34:04.777Z,30.45
2019-04-25T19:36:30.971Z,30.13
2019-04-25T19:38:57.264Z,30.54
2019-04-25T19:41:25.308Z,30.07
2019-04-25T19:44:02.290Z,30.50
2019-04-25T19:46:38.952Z,30.22
2019-04-25T19:49:05.840Z,29.96
2019-04-25T19:51:32.115Z,29.25
2019-04-25T19:53:58.266Z,30.42
2019-04-25T19:56:24.463Z,29.41
2019-04-25T19:58:50.741Z,29.25
2019-04-25T20:01:17.011Z,28.81
2019-04-25T20:03:54.172Z,29.46
2019-04-25T20:06:17.822Z,29.65
2019-04-25T20:08:46.635Z,29.51
2019-04-25T20:13:49.895Z,29.18
2019-04-25T20:16:16.152Z,28.70
2019-04-25T20:18:43.190Z,29.11
2019-04-25T20:21:10.448Z,29.32
2019-04-25T20:23:36.655Z,28.92
2019-04-25T20:26:02.853Z,28.32
2019-04-25T20:28:29.059Z,30.89
2019-04-25T20:30:55.176Z,30.33
2019-04-25T20:33:21.397Z,30.49
2019-04-25T20:35:47.580Z,29.20
2019-04-25T20:38:13.715Z,29.40
2019-04-25T20:40:39.924Z,29.32
2019-04-25T20:43:06.092Z,28.83
2019-04-25T20:45:32.270Z,29.66
2019-04-25T20:47:58.443Z,29.69
2019-04-25T20:50:24.676Z,28.58
2019-04-25T20:52:50.879Z,28.46
2019-04-25T20:55:17.163Z,27.53
2019-04-25T20:57:43.340Z,28.28
2019-04-25T21:00:09.690Z,27.99
2019-04-25T21:02:35.893Z,27.43
2019-04-25T21:05:02.267Z,28.41
2019-04-25T21:07:28.418Z,28.07
2019-04-25T21:09:55.333Z,27.78
2019-04-25T21:12:21.589Z,27.40
2019-04-25T21:14:52.810Z,27.15
2019-04-25T21:17:21.175Z,28.10
2019-04-25T21:19:51.293Z,28.66
2019-04-25T21:22:17.306Z,29.48
2019-04-25T21:24:43.561Z,29.02
2019-04-25T21:27:09.829Z,28.08
2019-04-25T21:29:35.981Z,27.90
2019-04-25T21:32:02.289Z,27.91
2019-04-25T21:34:30.780Z,28.22
2019-04-25T21:36:56.511Z,27.97
2019-04-25T21:39:28.656Z,28.92
2019-04-25T21:42:05.449Z,29.33
2019-04-25T21:44:31.965Z,28.77
2019-04-25T21:46:58.472Z,28.57
2019-04-25T21:49:25.329Z,28.62
2019-04-25T21:51:52.596Z,28.33
2019-04-25T21:54:19.040Z,28.40
2019-04-25T21:56:45.427Z,28.71
2019-04-25T21:59:11.933Z,29.29
2019-04-25T22:01:39.984Z,30.19
2019-04-25T22:04:06.540Z,32.40
2019-04-25T22:06:33.159Z,33.89
2019-04-25T22:08:59.404Z,33.19
2019-04-25T22:11:25.676Z,35.02
2019-04-25T22:13:52.294Z,36.38
2019-04-25T22:16:18.749Z,37.28
2019-04-25T22:18:45.237Z,38.25
2019-04-25T22:21:11.726Z,38.59
2019-04-25T22:23:38.341Z,40.33
2019-04-25T22:26:05.090Z,43.31
2019-04-25T22:28:31.685Z,45.55
2019-04-25T22:30:59.965Z,47.13
2019-04-25T22:33:42.906Z,45.66
2019-04-25T22:36:13.898Z,45.48
2019-04-25T22:38:40.047Z,43.76
2019-04-25T22:41:06.251Z,41.65
2019-04-25T22:46:26.296Z,45.74
2019-04-25T22:48:48.451Z,45.35
2019-04-25T22:51:15.490Z,44.95
2019-04-25T22:53:41.783Z,45.38
2019-04-25T22:56:07.955Z,46.01
2019-04-25T22:58:34.301Z,45.15
2019-04-25T23:01:02.276Z,45.74
2019-04-25T23:03:37.207Z,47.97
2019-04-25T23:06:03.747Z,46.46
2019-04-25T23:08:30.523Z,45.03
2019-04-25T23:10:56.696Z,45.50
2019-04-25T23:13:22.896Z,46.18
2019-04-25T23:15:49.054Z,43.68
2019-04-25T23:18:15.415Z,45.03
2019-04-25T23:20:41.647Z,44.63
2019-04-25T23:23:08.192Z,42.28
2019-04-25T23:25:36.563Z,40.35
2019-04-25T23:28:05.354Z,39.73
2019-04-25T23:30:34.648Z,39.90
2019-04-25T23:33:00.818Z,39.82
2019-04-25T23:35:30.046Z,37.90
2019-04-25T23:37:55.087Z,38.07
2019-04-25T23:40:21.567Z,36.95
2019-04-25T23:42:47.870Z,36.55
2019-04-25T23:45:14.527Z,36.30
2019-04-25T23:47:40.898Z,35.27
2019-04-25T23:50:08.560Z,35.74
2019-04-25T23:52:35.211Z,34.89
2019-04-25T23:55:01.381Z,37.83
2019-04-25T23:57:27.589Z,39.98
2019-04-25T23:59:53.744Z,41.80
